North Utica, Illinois
Current Conditions -  °F | °C
As of 2:15 PM on Monday 24 Nov 2014 (Local Time) from KVYS Reporting Station
Light Snow Light Snow  
Wind Chill: 18°   Ceiling: 1400
Heat Index: 30°   Visibility: 1.2mi
Dew Point: 28°   Wind: 18mph
Humidity: 90%   Direction: 260°W
Pressure: 29.56"   Gusts: 29mph
Location:  41.3954°N, 88.9927°W
Report Text: KVYS 242015Z AUTO 26016G25KT 1 1/4SM -SN OVC014 M01/M02 A2956 RMK AO2 T10101025
Loading
Personal Weather Stations






























Interactive Weather Map New forecast layout! Learn more

10-Day Weather Forecast

Advertisements
Track Severe Weather on mobile